Juliana Airport, Sint Maarten

6:30 PM AST on October 23, 2014 (GMT -0400)
Cole Bay, St.Maarten | Change Station
CLOSE
Current Station
Personal Weather Station
Location: Cole Bay, SINT MAARTEN
Elevation: 171 ft
Nearby Weather Stations

Elev 171 ft 18.04 °N, 63.08 °W | Updated 31 seconds ago

Partly Cloudy
Partly Cloudy
81.6 °F
Feels Like 89 °F
N
2.0
Wind Variable Wind from South
Gusts 6.0 mph

Today
High -- | Low -- °F
--% Chance of Precip.
Yesterday
High -- | Low -- °F
Precip. -- in
6:08 AM 5:44 PM
New Moon, 0% visible
Pressure 29.89 in
Visibility 6.2 miles
Clouds Few 2000 ft
Heat Index 89 °F
Dew Point 76 °F
Humidity 83%
Rainfall 0.00 in
Snow Depth Not available.
UV 0 out of 12
Pollen Not available.
Air Quality Not available.
Flu Activity Not available.
METAR TNCM 232200Z 10006KT 9999 FEW020 29/25 Q1012 A2991 NOSIG

More Conditions Fewer Conditions

Pressure 29.89 in
Visibility 6.2 miles
Clouds Few 2000 ft
Heat Index 89 °F
Dew Point 76 °F
Humidity 83%
Rainfall 0.00 in
Snow Depth Not available.
UV 0 out of 12
Pollen Not available.
Air Quality Not available.
Flu Activity Not available.
METAR TNCM 232200Z 10006KT 9999 FEW020 29/25 Q1012 A2991 NOSIG

More Conditions Fewer Conditions

10-Day Weather Forecast

Almanac

Astronomy

Oct. 23, 2014 Rise Set
Actual Time 6:08 AM AST 5:44 PM AST
Civil Twilight 5:45 AM AST 6:06 PM AST
Nautical Twilight 5:20 AM AST 6:32 PM AST
Astronomical Twilight 4:54 AM AST 6:57 PM AST
Moon 5:47 AM AST 5:43 PM AST
Length of Visible Light 12h 20m
Length of Day
11h 36m
Tomorrow will be 0m 56s shorter.
New Moon, 0% of the Moon is Illuminated
Today
New Moon
Oct 30
First Quarter
Nov 6
Full
Nov 14
Last Quarter
Nov 22
New

Community

WunderPhotos

Upload Photos

1,764,388 photos uploaded!

WunderBlogs® & News

Nearby

Snow Depth

Not available.

Earthquake Activity

City Distance Mag. Time & Date
No recent earthquake activity has been reported nearby.
Minimum magnitude displayed is 2.5.

Coastal Water Temperatures

Place Temperature
No Stations Reporting

Nearby Weather Stations